Lewis, Indiana
Current Conditions -  °F | °C
As of 5:53 AM on Saturday 20 Dec 2014 (Local Time) from KHUF Reporting Station
Overcast Overcast  
Wind Chill: 29°   Ceiling: 2700
Heat Index: 29°   Visibility: 7mi
Dew Point: 27°   Wind: 0mph
Humidity: 92%   Direction: NA
Pressure: 30.29"   Gusts: NA
Location:  39.26°N, 87.26°W
Report Text: KHUF 201053Z 00000KT 7SM OVC027 M02/M03 A3029 RMK AO2 SLP262 T10171028
Loading
Personal Weather Stations






























Interactive Weather Map New forecast layout! Learn more

10-Day Weather Forecast

Advertisements
Track Severe Weather on mobile